Terminal Aerodrome Forecast
Issued by NWS Quad Cities IA IL

Home | Current Version | Previous Version | Text Only | Print | Product List | Glossary On
Versions: 1 2 3 4 5 6 7 8 9 10 11 12 13 14 15 16 17 18 19
044
FTUS43 KDVN 102107 AAB
TAFDBQ
TAF AMD
KDBQ 102107Z 1021/1118 17005KT 3/4SM -SN BR VV015
     FM110300 12012KT 3/4SM -SN OVC010
     FM111400 15011KT 2SM -SN BR OVC015=

USA.gov is the U.S. government's official web portal to all federal, state and local government web resources and services.